createdAt,value
2022-10-30T00:00:50.023Z,5.32
2022-10-30T00:03:16.559Z,4.82
2022-10-30T00:05:43.979Z,5.22
2022-10-30T00:08:11.136Z,6.30
2022-10-30T00:10:37.373Z,4.50
2022-10-30T00:13:03.657Z,4.55
2022-10-30T00:15:29.884Z,4.93
2022-10-30T00:17:56.478Z,4.80
2022-10-30T00:20:23.040Z,4.70
2022-10-30T00:22:49.323Z,5.05
2022-10-30T00:25:15.715Z,5.05
2022-10-30T00:27:41.941Z,4.47
2022-10-30T00:30:08.512Z,5.40
2022-10-30T00:32:34.749Z,5.38
2022-10-30T00:35:00.988Z,5.35
2022-10-30T00:37:27.236Z,5.25
2022-10-30T00:39:53.479Z,5.30
2022-10-30T00:42:19.750Z,5.10
2022-10-30T00:44:50.086Z,4.60
2022-10-30T00:47:28.100Z,5.15
2022-10-30T00:50:00.627Z,4.82
2022-10-30T00:52:29.867Z,5.20
2022-10-30T00:54:57.405Z,4.32
2022-10-30T00:57:25.381Z,4.82
2022-10-30T00:59:52.038Z,4.05
2022-10-30T01:02:19.863Z,4.53
2022-10-30T01:04:47.059Z,4.68
2022-10-30T01:07:15.608Z,4.60
2022-10-30T01:09:42.132Z,4.43
2022-10-30T01:12:08.374Z,5.00
2022-10-30T01:14:37.092Z,4.65
2022-10-30T01:17:03.298Z,5.07
2022-10-30T01:19:42.539Z,4.72
2022-10-30T01:22:19.393Z,4.85
2022-10-30T01:25:00.930Z,4.85
2022-10-30T01:27:46.207Z,4.38
2022-10-30T01:30:19.750Z,4.18
2022-10-30T01:33:04.818Z,5.35
2022-10-30T01:35:37.454Z,4.90
2022-10-30T01:38:07.762Z,4.65
2022-10-30T01:40:34.018Z,4.88
2022-10-30T01:43:00.426Z,4.40
2022-10-30T01:45:36.974Z,4.78
2022-10-30T01:48:25.849Z,4.90
2022-10-30T01:50:52.064Z,4.93
2022-10-30T01:53:29.889Z,4.28
2022-10-30T01:56:11.627Z,4.57
2022-10-30T01:58:40.977Z,5.45
2022-10-30T02:01:07.718Z,4.45
2022-10-30T02:03:34.031Z,4.70
2022-10-30T02:06:00.747Z,4.47
2022-10-30T02:08:27.363Z,4.50
2022-10-30T02:10:54.097Z,4.72
2022-10-30T02:13:20.768Z,4.55
2022-10-30T02:15:47.982Z,4.30
2022-10-30T02:18:14.321Z,4.65
2022-10-30T02:20:40.724Z,3.97
2022-10-30T02:23:08.767Z,4.03
2022-10-30T02:25:35.477Z,5.47
2022-10-30T02:28:02.119Z,4.45
2022-10-30T02:30:28.574Z,4.28
2022-10-30T02:32:55.004Z,5.05
2022-10-30T02:35:21.491Z,5.13
2022-10-30T02:37:48.779Z,4.65
2022-10-30T02:40:15.088Z,4.15
2022-10-30T02:42:41.387Z,3.53
2022-10-30T02:45:08.064Z,4.68
2022-10-30T02:47:34.368Z,4.45
2022-10-30T02:50:00.648Z,4.20
2022-10-30T02:52:26.910Z,4.50
2022-10-30T02:54:53.136Z,4.47
2022-10-30T02:57:19.357Z,4.20
2022-10-30T02:59:45.618Z,4.57
2022-10-30T03:02:12.918Z,4.00
2022-10-30T03:04:39.196Z,4.20
2022-10-30T03:07:05.530Z,4.60
2022-10-30T03:09:31.783Z,4.28
2022-10-30T03:11:58.116Z,4.13
2022-10-30T03:14:24.396Z,4.10
2022-10-30T03:16:52.481Z,3.90
2022-10-30T03:19:19.300Z,4.40
2022-10-30T03:21:46.050Z,4.32
2022-10-30T03:24:12.359Z,4.05
2022-10-30T03:26:38.594Z,4.22
2022-10-30T03:29:04.946Z,4.45
2022-10-30T03:31:31.933Z,3.92
2022-10-30T03:33:58.357Z,4.25
2022-10-30T03:36:25.402Z,4.35
2022-10-30T03:38:51.694Z,4.10
2022-10-30T03:41:17.953Z,3.58
2022-10-30T03:43:44.198Z,4.50
2022-10-30T03:46:11.324Z,4.45
2022-10-30T03:48:37.586Z,4.07
2022-10-30T03:51:03.908Z,4.30
2022-10-30T03:53:30.229Z,4.40
2022-10-30T03:56:01.097Z,4.03
2022-10-30T03:58:27.990Z,4.50
2022-10-30T04:00:54.535Z,4.65
2022-10-30T04:03:21.226Z,4.03
2022-10-30T04:05:51.055Z,3.90
2022-10-30T04:08:17.839Z,3.85
2022-10-30T04:10:45.023Z,4.35
2022-10-30T04:13:12.390Z,4.03
2022-10-30T04:15:38.753Z,4.57
2022-10-30T04:18:05.259Z,4.40
2022-10-30T04:20:31.653Z,3.67
2022-10-30T04:22:59.451Z,4.00
2022-10-30T04:25:26.135Z,4.10
2022-10-30T04:27:56.389Z,3.78
2022-10-30T04:30:25.054Z,4.57
2022-10-30T04:32:56.093Z,4.32
2022-10-30T04:35:24.027Z,4.18
2022-10-30T04:37:57.892Z,4.28
2022-10-30T04:40:24.883Z,3.85
2022-10-30T04:42:51.412Z,4.40
2022-10-30T04:45:17.968Z,4.72
2022-10-30T04:47:44.335Z,4.40
2022-10-30T04:50:10.921Z,4.18
2022-10-30T04:52:37.493Z,4.00
2022-10-30T04:55:04.273Z,4.10
2022-10-30T04:57:31.719Z,4.68
2022-10-30T04:59:58.665Z,4.30
2022-10-30T05:02:25.365Z,4.40
2022-10-30T05:04:51.782Z,3.97
2022-10-30T05:07:18.278Z,3.50
2022-10-30T05:09:44.501Z,4.55
2022-10-30T05:12:10.845Z,4.60
2022-10-30T05:14:37.319Z,4.15
2022-10-30T05:17:03.576Z,3.83
2022-10-30T05:19:29.864Z,3.90
2022-10-30T05:21:56.109Z,4.03
2022-10-30T05:24:22.355Z,3.88
2022-10-30T05:26:48.615Z,3.92
2022-10-30T05:29:14.911Z,3.80
2022-10-30T05:31:41.238Z,4.32
2022-10-30T05:34:07.784Z,3.83
2022-10-30T05:36:34.134Z,4.30
2022-10-30T05:39:00.503Z,4.30
2022-10-30T05:41:26.743Z,3.30
2022-10-30T05:43:52.979Z,3.92
2022-10-30T05:46:19.277Z,3.80
2022-10-30T05:48:45.636Z,3.88
2022-10-30T05:51:11.954Z,3.97
2022-10-30T05:53:38.200Z,3.70
2022-10-30T05:56:05.911Z,4.35
2022-10-30T05:58:33.192Z,3.83
2022-10-30T06:00:59.515Z,3.58
2022-10-30T06:03:25.812Z,3.67
2022-10-30T06:05:52.084Z,4.15
2022-10-30T06:08:18.415Z,4.03
2022-10-30T06:10:44.847Z,4.20
2022-10-30T06:13:11.761Z,4.70
2022-10-30T06:15:38.154Z,3.83
2022-10-30T06:18:04.516Z,3.95
2022-10-30T06:20:31.108Z,4.00
2022-10-30T06:22:57.378Z,4.15
2022-10-30T06:25:23.788Z,3.78
2022-10-30T06:27:50.368Z,3.70
2022-10-30T06:30:17.043Z,4.50
2022-10-30T06:32:43.284Z,4.13
2022-10-30T06:35:10.740Z,3.78
2022-10-30T06:37:39.147Z,3.50
2022-10-30T06:40:07.031Z,3.55
2022-10-30T06:42:33.307Z,3.75
2022-10-30T06:44:59.613Z,3.90
2022-10-30T06:47:25.862Z,3.92
2022-10-30T06:49:52.149Z,3.88
2022-10-30T06:52:24.177Z,3.60
2022-10-30T06:54:50.724Z,3.42
2022-10-30T06:57:17.146Z,4.10
2022-10-30T06:59:43.443Z,4.03
2022-10-30T07:02:11.349Z,4.03
2022-10-30T07:04:37.776Z,3.85
2022-10-30T07:07:05.427Z,3.95
2022-10-30T07:09:31.973Z,3.88
2022-10-30T07:12:02.690Z,4.20
2022-10-30T07:14:32.098Z,3.47
2022-10-30T07:16:58.414Z,3.50
2022-10-30T07:19:24.701Z,3.80
2022-10-30T07:21:51.027Z,3.58
2022-10-30T07:24:17.345Z,3.40
2022-10-30T07:26:43.607Z,3.60
2022-10-30T07:29:09.888Z,3.60
2022-10-30T07:31:42.400Z,3.67
2022-10-30T07:34:24.257Z,3.55
2022-10-30T07:36:50.577Z,3.60
2022-10-30T07:39:16.913Z,3.70
2022-10-30T07:41:49.751Z,3.70
2022-10-30T07:44:16.747Z,3.83
2022-10-30T07:46:43.000Z,3.58
2022-10-30T07:49:09.270Z,3.45
2022-10-30T07:51:35.508Z,3.78
2022-10-30T07:54:01.944Z,3.50
2022-10-30T07:56:30.697Z,3.78
2022-10-30T07:58:56.971Z,3.72
2022-10-30T08:01:23.288Z,4.20
2022-10-30T08:03:49.726Z,3.88
2022-10-30T08:06:15.993Z,3.88
2022-10-30T08:08:43.539Z,4.07
2022-10-30T08:11:10.106Z,3.83
2022-10-30T08:13:36.369Z,4.13
2022-10-30T08:16:03.056Z,3.47
2022-10-30T08:18:29.366Z,3.95
2022-10-30T08:20:55.633Z,3.97
2022-10-30T08:23:23.078Z,3.70
2022-10-30T08:25:49.457Z,3.97
2022-10-30T08:28:16.006Z,4.13
2022-10-30T08:30:42.436Z,4.20
2022-10-30T08:33:11.464Z,4.00
2022-10-30T08:35:37.779Z,4.78
2022-10-30T08:38:04.068Z,4.50
2022-10-30T08:40:30.287Z,4.57
2022-10-30T08:42:57.268Z,4.35
2022-10-30T08:45:29.724Z,4.20
2022-10-30T08:48:01.930Z,4.28
2022-10-30T08:50:28.699Z,4.22
2022-10-30T08:52:55.062Z,4.03
2022-10-30T08:55:21.338Z,3.92
2022-10-30T08:57:47.658Z,4.32
2022-10-30T09:00:14.177Z,4.45
2022-10-30T09:02:40.574Z,4.35
2022-10-30T09:05:07.680Z,4.40
2022-10-30T09:07:33.956Z,4.47
2022-10-30T09:10:01.067Z,4.07
2022-10-30T09:12:27.329Z,5.20
2022-10-30T09:14:53.603Z,4.32
2022-10-30T09:17:19.879Z,3.85
2022-10-30T09:22:12.474Z,4.38
2022-10-30T09:24:39.964Z,4.47
2022-10-30T09:27:06.806Z,4.47
2022-10-30T09:29:33.108Z,4.45
2022-10-30T09:31:59.953Z,4.18
2022-10-30T09:36:55.034Z,4.43
2022-10-30T09:39:21.276Z,3.97
2022-10-30T09:42:00.166Z,4.43
2022-10-30T09:44:38.465Z,4.60
2022-10-30T09:47:11.677Z,4.10
2022-10-30T09:49:50.361Z,3.97
2022-10-30T09:52:28.530Z,3.97
2022-10-30T09:55:08.887Z,4.05
2022-10-30T09:57:38.311Z,4.32
2022-10-30T10:00:12.693Z,5.32
2022-10-30T10:02:58.588Z,5.00
2022-10-30T10:05:28.258Z,4.32
2022-10-30T10:07:57.726Z,4.57
2022-10-30T10:10:38.575Z,4.88
2022-10-30T10:13:05.703Z,3.78
2022-10-30T10:15:49.592Z,4.18
2022-10-30T10:18:22.985Z,4.10
2022-10-30T10:20:51.611Z,4.07
2022-10-30T10:23:19.169Z,4.55
2022-10-30T10:25:51.053Z,4.47
2022-10-30T10:28:37.600Z,4.63
2022-10-30T10:31:16.946Z,3.97
2022-10-30T10:33:59.138Z,4.50
2022-10-30T10:36:44.287Z,4.40
2022-10-30T10:39:13.939Z,4.00
2022-10-30T10:41:55.977Z,3.90
2022-10-30T10:44:42.833Z,4.25
2022-10-30T10:47:27.954Z,4.38
2022-10-30T10:50:03.108Z,4.72
2022-10-30T10:52:41.139Z,4.78
2022-10-30T10:55:14.319Z,4.03
2022-10-30T10:57:41.470Z,3.88
2022-10-30T11:00:10.854Z,4.40
2022-10-30T11:02:37.165Z,4.45
2022-10-30T11:05:26.933Z,3.20
2022-10-30T11:07:54.108Z,4.15
2022-10-30T11:10:21.375Z,3.90
2022-10-30T11:12:47.637Z,4.25
2022-10-30T11:15:19.955Z,4.00
2022-10-30T11:17:52.399Z,4.40
2022-10-30T11:20:21.015Z,4.15
2022-10-30T11:22:50.128Z,4.70
2022-10-30T11:25:18.856Z,4.97
2022-10-30T11:27:46.478Z,5.18
2022-10-30T11:30:23.742Z,4.70
2022-10-30T11:32:50.668Z,4.65
2022-10-30T11:35:18.342Z,5.20
2022-10-30T11:37:45.332Z,4.43
2022-10-30T11:40:11.610Z,4.72
2022-10-30T11:42:46.857Z,5.10
2022-10-30T11:45:15.620Z,4.63
2022-10-30T11:47:42.087Z,4.60
2022-10-30T11:50:17.128Z,5.07
2022-10-30T11:52:44.167Z,4.68
2022-10-30T11:55:14.206Z,4.40
2022-10-30T11:57:48.918Z,4.57
2022-10-30T12:00:20.482Z,4.38
2022-10-30T12:02:48.375Z,4.43
2022-10-30T12:05:23.460Z,4.65
2022-10-30T12:07:49.923Z,5.07
2022-10-30T12:10:39.464Z,4.68
2022-10-30T12:13:06.413Z,4.30
2022-10-30T12:15:37.295Z,4.40
2022-10-30T12:18:05.422Z,4.90
2022-10-30T12:20:32.930Z,4.15
2022-10-30T12:23:08.539Z,4.75
2022-10-30T12:25:35.187Z,4.05
2022-10-30T12:28:05.986Z,4.65
2022-10-30T12:30:35.331Z,4.05
2022-10-30T12:33:01.830Z,4.30
2022-10-30T12:35:49.430Z,4.30
2022-10-30T12:38:20.490Z,3.97
2022-10-30T12:40:53.331Z,3.67
2022-10-30T12:43:21.278Z,3.88
2022-10-30T12:45:48.864Z,4.32
2022-10-30T12:48:27.440Z,4.30
2022-10-30T12:51:15.915Z,4.05
2022-10-30T12:53:49.102Z,4.22
2022-10-30T12:56:18.595Z,4.15
2022-10-30T12:58:56.473Z,4.97
2022-10-30T13:01:43.701Z,4.28
2022-10-30T13:04:10.058Z,4.55
2022-10-30T13:06:44.946Z,4.18
2022-10-30T13:09:30.095Z,3.83
2022-10-30T13:12:03.758Z,4.20
2022-10-30T13:14:35.002Z,4.10
2022-10-30T13:17:01.278Z,4.70
2022-10-30T13:19:28.170Z,4.22
2022-10-30T13:22:05.504Z,3.72
2022-10-30T13:24:49.135Z,4.22
2022-10-30T13:27:41.951Z,3.78
2022-10-30T13:30:14.349Z,4.30
2022-10-30T13:32:49.734Z,3.85
2022-10-30T13:35:33.261Z,3.88
2022-10-30T13:38:18.246Z,4.72
2022-10-30T13:40:46.533Z,3.75
2022-10-30T13:43:42.781Z,3.85
2022-10-30T13:46:28.532Z,4.20
2022-10-30T13:49:13.596Z,4.13
2022-10-30T13:51:42.364Z,4.10
2022-10-30T13:54:12.016Z,4.53
2022-10-30T13:56:39.396Z,4.65
2022-10-30T13:59:29.027Z,3.67
2022-10-30T14:02:02.032Z,3.90
2022-10-30T14:04:58.206Z,3.50
2022-10-30T14:07:24.451Z,4.03
2022-10-30T14:10:01.325Z,3.95
2022-10-30T14:12:46.492Z,3.45
2022-10-30T14:15:24.423Z,4.03
2022-10-30T14:18:09.554Z,3.88
2022-10-30T14:20:35.843Z,3.88
2022-10-30T14:23:12.177Z,3.58
2022-10-30T14:25:38.630Z,3.45
2022-10-30T14:28:05.433Z,3.72
2022-10-30T14:30:33.913Z,4.00
2022-10-30T14:33:00.177Z,4.20
2022-10-30T14:35:34.169Z,3.60
2022-10-30T14:38:06.575Z,3.85
2022-10-30T14:40:36.016Z,4.03
2022-10-30T14:43:06.188Z,3.40
2022-10-30T14:45:44.910Z,3.70
2022-10-30T14:48:24.167Z,3.67
2022-10-30T14:51:12.970Z,4.00
2022-10-30T14:53:49.320Z,3.63
2022-10-30T14:56:21.876Z,4.05
2022-10-30T14:59:07.029Z,4.00
2022-10-30T15:01:36.850Z,3.47
2022-10-30T15:04:19.545Z,3.40
2022-10-30T15:06:48.778Z,3.17
2022-10-30T15:09:34.076Z,4.07
2022-10-30T15:12:22.722Z,3.28
2022-10-30T15:14:59.499Z,3.25
2022-10-30T15:17:31.957Z,3.20
2022-10-30T15:20:02.184Z,4.15
2022-10-30T15:22:29.388Z,3.83
2022-10-30T15:24:55.806Z,3.60
2022-10-30T15:27:23.163Z,3.60
2022-10-30T15:29:56.705Z,3.70
2022-10-30T15:32:24.261Z,3.70
2022-10-30T15:34:59.835Z,4.38
2022-10-30T15:37:26.919Z,4.63
2022-10-30T15:40:13.410Z,3.78
2022-10-30T15:42:40.217Z,4.15
2022-10-30T15:45:11.608Z,3.30
2022-10-30T15:47:45.621Z,3.75
2022-10-30T15:50:12.108Z,3.42
2022-10-30T15:52:40.975Z,3.83
2022-10-30T15:55:08.892Z,4.22
2022-10-30T15:58:01.593Z,4.35
2022-10-30T16:00:25.345Z,3.65
2022-10-30T16:03:04.105Z,3.40
2022-10-30T16:05:30.980Z,3.65
2022-10-30T16:07:57.975Z,3.30
2022-10-30T16:10:25.818Z,4.00
2022-10-30T16:12:55.429Z,4.10
2022-10-30T16:15:30.781Z,3.72
2022-10-30T16:18:08.033Z,3.93
2022-10-30T16:20:35.440Z,4.32
2022-10-30T16:23:02.551Z,3.78
2022-10-30T16:25:29.165Z,4.57
2022-10-30T16:27:55.494Z,4.80
2022-10-30T16:30:23.763Z,4.60
2022-10-30T16:32:54.591Z,7.07
2022-10-30T16:35:22.761Z,7.60
2022-10-30T16:37:50.555Z,7.00
2022-10-30T16:40:23.496Z,7.25
2022-10-30T16:43:00.869Z,5.85
2022-10-30T16:45:33.908Z,5.72
2022-10-30T16:48:13.507Z,5.85
2022-10-30T16:50:39.828Z,5.50
2022-10-30T16:53:07.234Z,5.47
2022-10-30T16:55:34.755Z,5.32
2022-10-30T16:58:01.121Z,5.35
2022-10-30T17:00:30.545Z,5.32
2022-10-30T17:02:59.745Z,5.25
2022-10-30T17:05:27.779Z,4.90
2022-10-30T17:08:04.487Z,5.50
2022-10-30T17:10:57.513Z,6.05
2022-10-30T17:13:37.697Z,6.25
2022-10-30T17:16:13.285Z,5.60
2022-10-30T17:18:39.544Z,5.68
2022-10-30T17:21:08.291Z,5.18
2022-10-30T17:23:35.433Z,5.18
2022-10-30T17:26:09.308Z,5.30
2022-10-30T17:28:36.496Z,6.45
2022-10-30T17:31:28.879Z,4.90
2022-10-30T17:34:10.879Z,5.20
2022-10-30T17:36:37.161Z,6.32
2022-10-30T17:39:03.795Z,6.25
2022-10-30T17:41:30.164Z,6.38
2022-10-30T17:43:56.502Z,6.22
2022-10-30T17:46:23.190Z,6.63
2022-10-30T17:48:49.899Z,5.55
2022-10-30T17:51:17.024Z,7.22
2022-10-30T17:53:43.692Z,6.25
2022-10-30T17:56:16.204Z,6.72
2022-10-30T17:58:42.503Z,6.63
2022-10-30T18:01:14.235Z,6.80
2022-10-30T18:03:40.598Z,6.28
2022-10-30T18:06:07.075Z,6.90
2022-10-30T18:08:33.870Z,6.60
2022-10-30T18:11:00.152Z,6.93
2022-10-30T18:13:26.380Z,7.18
2022-10-30T18:16:02.020Z,6.40
2022-10-30T18:18:28.332Z,7.57
2022-10-30T18:20:54.610Z,6.63
2022-10-30T18:26:16.877Z,8.02
2022-10-30T18:28:43.274Z,7.95
2022-10-30T18:31:11.883Z,8.15
2022-10-30T18:33:38.224Z,7.63
2022-10-30T18:36:06.558Z,7.40
2022-10-30T18:38:32.832Z,8.50
2022-10-30T18:40:59.473Z,8.23
2022-10-30T18:43:25.723Z,9.23
2022-10-30T18:45:52.221Z,10.10
2022-10-30T18:48:18.481Z,9.13
2022-10-30T18:50:44.923Z,9.75
2022-10-30T18:53:16.203Z,9.05
2022-10-30T18:55:42.612Z,9.43
2022-10-30T18:58:09.835Z,8.63
2022-10-30T19:00:51.307Z,9.90
2022-10-30T19:03:23.140Z,9.60
2022-10-30T19:05:51.097Z,10.52
2022-10-30T19:08:17.341Z,10.73
2022-10-30T19:10:44.774Z,11.00
2022-10-30T19:13:29.309Z,10.90
2022-10-30T19:16:00.433Z,10.93
2022-10-30T19:18:28.347Z,11.70
2022-10-30T19:21:15.505Z,11.85
2022-10-30T19:23:41.040Z,11.57
2022-10-30T19:26:07.359Z,11.25
2022-10-30T19:28:33.660Z,11.18
2022-10-30T19:31:00.111Z,12.18
2022-10-30T19:33:26.454Z,12.15
2022-10-30T19:35:53.909Z,10.48
2022-10-30T19:38:20.284Z,12.15
2022-10-30T19:40:46.513Z,11.70
2022-10-30T19:43:12.812Z,12.05
2022-10-30T19:45:39.156Z,12.07
2022-10-30T19:48:14.393Z,12.60
2022-10-30T19:50:41.222Z,11.15
2022-10-30T19:53:07.606Z,11.25
2022-10-30T19:55:35.146Z,12.27
2022-10-30T19:58:02.131Z,13.13
2022-10-30T20:00:29.760Z,12.52
2022-10-30T20:02:56.911Z,11.18
2022-10-30T20:05:24.394Z,12.45
2022-10-30T20:08:01.595Z,12.90
2022-10-30T20:10:29.123Z,12.02
2022-10-30T20:12:56.824Z,12.90
2022-10-30T20:15:23.815Z,11.73
2022-10-30T20:17:50.301Z,12.38
2022-10-30T20:20:18.676Z,12.85
2022-10-30T20:22:44.958Z,12.63
2022-10-30T20:25:11.270Z,12.75
2022-10-30T20:27:38.295Z,12.70
2022-10-30T20:30:05.386Z,11.70
2022-10-30T20:32:31.675Z,12.35
2022-10-30T20:34:58.020Z,12.93
2022-10-30T20:37:24.367Z,12.40
2022-10-30T20:39:53.538Z,12.05
2022-10-30T20:42:21.487Z,12.13
2022-10-30T20:44:47.802Z,10.90
2022-10-30T20:47:14.242Z,12.00
2022-10-30T20:49:40.520Z,11.70
2022-10-30T20:52:06.800Z,11.80
2022-10-30T20:54:33.090Z,12.50
2022-10-30T20:56:59.408Z,12.35
2022-10-30T20:59:25.733Z,11.60
2022-10-30T21:01:52.096Z,11.65
2022-10-30T21:04:18.443Z,10.13
2022-10-30T21:06:44.852Z,10.77
2022-10-30T21:09:11.158Z,10.38
2022-10-30T21:11:37.430Z,10.93
2022-10-30T21:14:03.670Z,10.82
2022-10-30T21:16:29.946Z,11.63
2022-10-30T21:18:56.173Z,11.23
2022-10-30T21:21:25.585Z,11.57
2022-10-30T21:23:55.603Z,12.10
2022-10-30T21:26:21.859Z,11.48
2022-10-30T21:28:48.123Z,9.77
2022-10-30T21:31:14.658Z,11.88
2022-10-30T21:33:40.942Z,10.80
2022-10-30T21:36:12.352Z,11.77
2022-10-30T21:38:39.343Z,11.35
2022-10-30T21:41:05.930Z,11.43
2022-10-30T21:43:32.203Z,12.10
2022-10-30T21:45:58.467Z,11.90
2022-10-30T21:48:28.137Z,11.35
2022-10-30T21:50:54.367Z,10.63
2022-10-30T21:53:23.162Z,11.02
2022-10-30T21:55:51.712Z,12.90
2022-10-30T21:58:17.980Z,11.10
2022-10-30T22:00:44.693Z,11.68
2022-10-30T22:03:10.956Z,11.15
2022-10-30T22:05:37.211Z,10.52
2022-10-30T22:08:03.504Z,11.05
2022-10-30T22:10:29.736Z,10.32
2022-10-30T22:12:55.977Z,10.75
2022-10-30T22:15:22.224Z,11.10
2022-10-30T22:17:48.503Z,10.88
2022-10-30T22:20:14.951Z,10.65
2022-10-30T22:22:41.189Z,10.98
2022-10-30T22:25:07.562Z,10.77
2022-10-30T22:27:33.888Z,9.85
2022-10-30T22:30:00.156Z,10.48
2022-10-30T22:32:26.673Z,10.27
2022-10-30T22:34:52.964Z,9.95
2022-10-30T22:37:19.278Z,9.93
2022-10-30T22:39:45.521Z,9.90
2022-10-30T22:42:11.818Z,9.80
2022-10-30T22:44:38.027Z,9.90
2022-10-30T22:47:04.263Z,9.80
2022-10-30T22:49:30.513Z,10.20
2022-10-30T22:51:56.803Z,10.43
2022-10-30T22:54:23.058Z,10.48
2022-10-30T22:56:49.373Z,9.52
2022-10-30T22:59:15.638Z,9.65
2022-10-30T23:01:42.396Z,9.85
2022-10-30T23:04:10.262Z,9.43
2022-10-30T23:06:37.365Z,9.90
2022-10-30T23:09:05.186Z,10.45
2022-10-30T23:11:31.581Z,9.18
2022-10-30T23:13:58.066Z,9.85
2022-10-30T23:16:25.172Z,9.55
2022-10-30T23:18:51.803Z,8.90
2022-10-30T23:21:19.241Z,10.07
2022-10-30T23:23:45.774Z,9.77
2022-10-30T23:26:15.057Z,9.13
2022-10-30T23:28:41.870Z,9.40
2022-10-30T23:31:25.429Z,10.07
2022-10-30T23:33:53.068Z,8.93
2022-10-30T23:36:19.701Z,9.90
2022-10-30T23:38:51.146Z,8.80
2022-10-30T23:41:17.414Z,9.52
2022-10-30T23:43:43.705Z,8.50
2022-10-30T23:46:09.987Z,11.15
2022-10-30T23:48:36.311Z,9.13
2022-10-30T23:51:09.071Z,9.00
2022-10-30T23:53:35.677Z,9.35
2022-10-30T23:56:03.017Z,8.38
2022-10-30T23:58:29.304Z,8.73
